Time;durP1;ratioP1;P1;durP2;ratioP2;P2;SDS_P1;SDS_P2;PMS_P1;PMS_P2;Temp;Humidity;BMP_temperature;BMP_pressure;BME280_temperature;BME280_humidity;BME280_pressure;Samples;Min_cycle;Max_cycle;Signal;HPM_P1;HPM_P2
2022/09/26 00:00:17;;;;;;;11.93;8.13;;;19.40;59.00;;;;;;5072455;28;20195;-70
2022/09/26 00:02:44;;;;;;;13.30;7.80;;;19.40;59.00;;;;;;5072410;28;20252;-70
2022/09/26 00:05:12;;;;;;;13.30;7.50;;;19.40;59.00;;;;;;5072377;28;20194;-70
2022/09/26 00:07:39;;;;;;;12.48;7.65;;;19.40;59.00;;;;;;5072663;28;20199;-70
2022/09/26 00:10:07;;;;;;;13.52;8.52;;;19.40;59.00;;;;;;5077410;28;20191;-70
2022/09/26 00:12:35;;;;;;;13.55;7.63;;;19.40;59.00;;;;;;5076239;28;20241;-70
2022/09/26 00:15:02;;;;;;;11.55;7.75;;;19.40;59.00;;;;;;5072068;28;20222;-70
2022/09/26 00:17:29;;;;;;;10.85;7.78;;;19.30;59.00;;;;;;5072472;28;20215;-70
2022/09/26 00:19:56;;;;;;;15.00;8.20;;;19.30;59.00;;;;;;5072019;28;20202;-70
2022/09/26 00:22:23;;;;;;;13.13;7.47;;;19.30;58.90;;;;;;5071872;28;20198;-70
2022/09/26 00:24:50;;;;;;;10.75;7.13;;;19.30;58.90;;;;;;5071928;28;20218;-70
2022/09/26 00:27:18;;;;;;;10.80;7.80;;;19.30;59.00;;;;;;5073572;28;20688;-70
2022/09/26 00:29:47;;;;;;;11.40;7.07;;;19.30;58.80;;;;;;5075629;28;20230;-70
2022/09/26 00:32:13;;;;;;;12.68;7.53;;;19.30;58.80;;;;;;5075631;28;20198;-70
2022/09/26 00:34:40;;;;;;;9.77;6.68;;;19.30;58.80;;;;;;5075510;28;20253;-70
2022/09/26 00:37:08;;;;;;;14.02;7.40;;;19.30;58.80;;;;;;5075239;28;20222;-70
2022/09/26 00:39:35;;;;;;;12.27;7.50;;;19.30;58.80;;;;;;5075747;28;20310;-70
2022/09/26 00:42:02;;;;;;;12.68;7.00;;;19.20;58.80;;;;;;5075429;28;20227;-70
2022/09/26 00:44:44;;;;;;;9.18;6.95;;;19.20;58.80;;;;;;5075194;28;20317;-70
2022/09/26 00:47:20;;;;;;;11.82;7.25;;;19.20;58.80;;;;;;5075162;28;20218;-70
2022/09/26 00:49:47;;;;;;;10.93;6.78;;;19.20;58.70;;;;;;5075157;28;20190;-70
2022/09/26 00:52:16;;;;;;;9.55;6.53;;;19.20;58.80;;;;;;5075207;28;20191;-70
2022/09/26 00:54:45;;;;;;;9.63;6.40;;;19.20;58.80;;;;;;5075083;28;20722;-70
2022/09/26 00:57:16;;;;;;;9.63;6.70;;;19.20;58.80;;;;;;5058965;28;20297;-70
2022/09/26 00:59:45;;;;;;;9.52;6.80;;;19.20;58.80;;;;;;5075153;28;20213;-70
2022/09/26 01:02:12;;;;;;;10.05;6.70;;;19.20;58.90;;;;;;5074881;28;20230;-70
2022/09/26 01:04:41;;;;;;;11.02;7.05;;;19.10;58.70;;;;;;5074787;28;20306;-70
2022/09/26 01:07:10;;;;;;;9.88;6.50;;;19.10;58.70;;;;;;5058401;28;20310;-70
2022/09/26 01:09:38;;;;;;;8.77;6.88;;;19.10;58.60;;;;;;5074814;28;20195;-70
2022/09/26 01:12:05;;;;;;;10.35;6.72;;;19.10;58.80;;;;;;5074762;28;20202;-70
2022/09/26 01:14:32;;;;;;;10.45;6.75;;;19.10;58.70;;;;;;5074522;28;20202;-70
2022/09/26 01:16:59;;;;;;;9.50;6.32;;;19.10;58.70;;;;;;5074562;28;20226;-70
2022/09/26 01:19:34;;;;;;;10.38;6.38;;;19.10;58.70;;;;;;5074859;28;20198;-70
2022/09/26 01:22:19;;;;;;;8.43;6.13;;;19.10;58.70;;;;;;5074656;28;20660;-70
2022/09/26 01:24:54;;;;;;;9.48;6.72;;;19.10;58.60;;;;;;5075244;28;20246;-70
2022/09/26 01:27:43;;;;;;;7.68;6.30;;;19.00;58.60;;;;;;5076466;28;20210;-70
2022/09/26 01:30:16;;;;;;;10.60;6.20;;;19.00;58.60;;;;;;5074698;28;20194;-70
2022/09/26 01:32:53;;;;;;;8.15;5.97;;;19.00;58.70;;;;;;5075180;28;20285;-70
2022/09/26 01:35:30;;;;;;;8.10;6.00;;;19.00;58.60;;;;;;5074353;28;20660;-70
2022/09/26 01:38:01;;;;;;;9.23;6.63;;;18.90;58.50;;;;;;5074117;28;20191;-70
2022/09/26 01:40:31;;;;;;;8.82;6.30;;;18.90;58.50;;;;;;5074092;28;20223;-70
2022/09/26 01:43:04;;;;;;;9.77;6.60;;;18.90;58.50;;;;;;5074138;28;20191;-70
2022/09/26 01:45:37;;;;;;;8.05;6.25;;;18.90;58.50;;;;;;5073868;28;20257;-70
2022/09/26 01:48:06;;;;;;;8.88;6.35;;;18.90;58.50;;;;;;5075564;28;20179;-70
2022/09/26 01:50:35;;;;;;;9.65;6.18;;;18.90;58.50;;;;;;5074026;28;20206;-70
2022/09/26 01:53:04;;;;;;;8.05;6.05;;;18.90;58.20;;;;;;5073800;28;20230;-70
2022/09/26 01:55:33;;;;;;;9.73;6.63;;;18.90;58.50;;;;;;5074982;28;20214;-70
2022/09/26 01:58:05;;;;;;;8.07;5.80;;;18.90;58.50;;;;;;5073659;28;20228;-70
2022/09/26 02:00:34;;;;;;;8.65;6.40;;;18.80;58.60;;;;;;5074394;28;20604;-70
2022/09/26 02:03:02;;;;;;;10.57;6.38;;;18.80;59.10;;;;;;5074540;28;20194;-70
2022/09/26 02:05:31;;;;;;;8.13;5.97;;;18.80;58.50;;;;;;5056953;28;20699;-70
2022/09/26 02:08:00;;;;;;;9.52;6.18;;;18.80;58.50;;;;;;5073580;28;20194;-70
2022/09/26 02:10:32;;;;;;;7.05;5.28;;;18.80;58.60;;;;;;5073530;28;20620;-70
2022/09/26 02:13:01;;;;;;;7.47;5.60;;;18.80;58.70;;;;;;5073316;28;20728;-70
2022/09/26 02:15:28;;;;;;;9.00;5.97;;;18.70;58.60;;;;;;5057211;28;20710;-70
2022/09/26 02:18:01;;;;;;;7.65;5.53;;;18.70;58.50;;;;;;5073350;28;20223;-70
2022/09/26 02:20:30;;;;;;;7.40;5.50;;;18.70;58.70;;;;;;5056720;28;20210;-70
2022/09/26 02:22:57;;;;;;;8.40;5.45;;;18.70;58.70;;;;;;5073249;28;20244;-70
2022/09/26 02:25:24;;;;;;;7.80;5.72;;;18.60;58.70;;;;;;5073116;28;20271;-70
2022/09/26 02:27:51;;;;;;;9.02;6.05;;;18.70;58.80;;;;;;5074262;28;20195;-70
2022/09/26 02:30:18;;;;;;;8.15;5.80;;;18.60;58.60;;;;;;5073179;28;20575;-70
2022/09/26 02:32:46;;;;;;;7.47;5.70;;;18.60;58.60;;;;;;5073039;28;20221;-70
2022/09/26 02:37:56;;;;;;;7.45;5.63;;;18.60;58.60;;;;;;5072254;28;20194;-70
2022/09/26 02:40:26;;;;;;;6.43;5.40;;;18.60;59.40;;;;;;5073110;28;20198;-70
2022/09/26 02:42:56;;;;;;;6.22;5.32;;;18.60;58.80;;;;;;5072931;28;20209;-70
2022/09/26 02:45:26;;;;;;;6.63;4.95;;;18.60;58.80;;;;;;5072730;28;20707;-70
2022/09/26 02:48:08;;;;;;;7.30;5.60;;;18.60;58.70;;;;;;5073151;28;20195;-70
2022/09/26 02:50:46;;;;;;;7.88;5.43;;;18.60;58.70;;;;;;5073595;28;20179;-70
2022/09/26 02:53:24;;;;;;;6.65;5.43;;;18.60;58.80;;;;;;5073112;28;20218;-70
2022/09/26 02:55:59;;;;;;;7.50;5.50;;;18.60;58.70;;;;;;5072787;28;20210;-70
2022/09/26 02:58:34;;;;;;;7.65;5.25;;;18.60;58.80;;;;;;5056601;28;20269;-70
2022/09/26 03:01:06;;;;;;;7.80;5.78;;;18.60;58.80;;;;;;5072663;28;20198;-70
2022/09/26 03:03:35;;;;;;;7.65;5.30;;;18.50;58.70;;;;;;5072621;28;20680;-70
2022/09/26 03:06:05;;;;;;;8.85;4.90;;;18.60;58.60;;;;;;5072685;28;20207;-70
2022/09/26 03:08:34;;;;;;;5.95;5.30;;;18.50;58.60;;;;;;5072792;28;20198;-70
2022/09/26 03:11:04;;;;;;;6.97;5.47;;;18.60;58.50;;;;;;5056957;28;20278;-70
2022/09/26 03:13:33;;;;;;;7.70;5.28;;;18.50;58.50;;;;;;5072895;28;20213;-70
2022/09/26 03:16:00;;;;;;;7.97;5.25;;;18.50;58.50;;;;;;5074361;28;20221;-70
2022/09/26 03:18:29;;;;;;;7.13;5.35;;;18.60;58.70;;;;;;5072988;28;20218;-70
2022/09/26 03:20:56;;;;;;;6.50;5.43;;;18.60;58.80;;;;;;5072679;28;20587;-71
2022/09/26 03:23:26;;;;;;;8.70;5.88;;;18.60;58.90;;;;;;5072750;28;20566;-71
2022/09/26 03:26:00;;;;;;;9.23;5.43;;;18.60;58.90;;;;;;5072633;28;20332;-71
2022/09/26 03:28:30;;;;;;;7.40;5.43;;;18.60;58.70;;;;;;5072613;28;20199;-70
2022/09/26 03:30:58;;;;;;;8.50;5.90;;;18.60;58.70;;;;;;5072357;28;20205;-70
2022/09/26 03:33:27;;;;;;;8.10;5.57;;;18.70;59.00;;;;;;5056942;28;20198;-70
2022/09/26 03:35:58;;;;;;;5.90;5.03;;;18.90;58.80;;;;;;5072282;28;20696;-70
2022/09/26 03:38:26;;;;;;;6.80;5.68;;;18.90;58.50;;;;;;5072469;28;20308;-70
2022/09/26 03:41:04;;;;;;;7.28;4.97;;;18.90;58.30;;;;;;5072676;28;20198;-70
2022/09/26 03:44:07;;;;;;;7.78;5.30;;;19.00;58.10;;;;;;5069201;28;20347;-70
2022/09/26 03:46:54;;;;;;;6.78;5.57;;;19.10;57.90;;;;;;5072508;28;20272;-70
2022/09/26 03:49:21;;;;;;;6.18;4.60;;;19.10;57.90;;;;;;5055858;28;20199;-70
2022/09/26 03:51:48;;;;;;;8.80;5.22;;;19.10;57.70;;;;;;5072660;28;20195;-70
2022/09/26 03:54:16;;;;;;;6.57;4.90;;;19.10;57.60;;;;;;5073148;28;20208;-70
2022/09/26 03:56:44;;;;;;;6.13;4.68;;;19.10;57.50;;;;;;5074525;28;20287;-70
2022/09/26 03:59:11;;;;;;;7.18;5.13;;;19.10;57.60;;;;;;5072346;28;20207;-70
2022/09/26 04:01:39;;;;;;;6.20;4.80;;;19.10;57.50;;;;;;5072571;28;20191;-70
2022/09/26 04:04:06;;;;;;;6.18;4.85;;;19.10;57.50;;;;;;5076043;28;20293;-73
2022/09/26 04:06:33;;;;;;;4.97;4.35;;;19.10;57.30;;;;;;5076004;28;20583;-71
2022/09/26 04:09:01;;;;;;;6.25;4.88;;;19.10;57.50;;;;;;5075973;28;20206;-73
2022/09/26 04:11:31;;;;;;;6.15;4.95;;;19.10;57.30;;;;;;5076172;28;20244;-74
2022/09/26 04:13:58;;;;;;;9.05;4.30;;;19.00;57.50;;;;;;5076153;28;20252;-72
2022/09/26 04:16:29;;;;;;;4.72;4.28;;;19.00;57.40;;;;;;5076618;28;20222;-72
2022/09/26 04:19:02;;;;;;;6.18;4.18;;;19.00;57.30;;;;;;5076040;28;20250;-72
2022/09/26 04:21:30;;;;;;;6.57;4.63;;;19.00;57.50;;;;;;5076020;28;20199;-72
2022/09/26 04:23:58;;;;;;;8.98;5.10;;;19.00;57.80;;;;;;5076701;28;20198;-73
2022/09/26 04:26:26;;;;;;;6.93;4.10;;;19.00;58.10;;;;;;5075534;28;20631;-73
2022/09/26 04:28:56;;;;;;;6.47;4.35;;;19.00;58.00;;;;;;5075557;28;20260;-74
2022/09/26 04:31:35;;;;;;;5.93;4.45;;;19.00;58.10;;;;;;5075577;28;20278;-72
2022/09/26 04:34:10;;;;;;;5.38;4.55;;;19.00;58.20;;;;;;5076358;28;20194;-73
2022/09/26 04:36:37;;;;;;;5.90;4.60;;;19.00;58.20;;;;;;5075470;28;20237;-72
2022/09/26 04:39:04;;;;;;;5.10;4.50;;;19.00;58.20;;;;;;5075833;28;20201;-72
2022/09/26 04:41:31;;;;;;;4.43;4.03;;;19.00;58.60;;;;;;5075528;28;20187;-72
2022/09/26 04:44:01;;;;;;;7.35;4.20;;;19.00;58.30;;;;;;5075572;28;20191;-72
2022/09/26 04:46:30;;;;;;;6.65;4.50;;;19.00;58.20;;;;;;5076002;28;20292;-71
2022/09/26 04:48:59;;;;;;;5.22;4.03;;;19.00;58.20;;;;;;5076589;28;20205;-72
2022/09/26 04:51:27;;;;;;;4.88;3.72;;;19.00;58.40;;;;;;5075352;28;20774;-72
2022/09/26 04:53:54;;;;;;;5.43;4.00;;;19.00;58.40;;;;;;5076197;28;20198;-72
2022/09/26 04:56:25;;;;;;;4.07;3.65;;;18.90;58.50;;;;;;5076000;28;20237;-71
2022/09/26 04:58:53;;;;;;;6.78;4.18;;;18.90;58.60;;;;;;5075701;28;20199;-72
2022/09/26 05:01:22;;;;;;;5.10;3.95;;;18.90;58.70;;;;;;5074959;28;20199;-72
2022/09/26 05:03:59;;;;;;;5.78;4.05;;;18.90;58.50;;;;;;5075135;28;20190;-71
2022/09/26 05:06:28;;;;;;;9.98;4.05;;;18.90;58.50;;;;;;5074927;28;20734;-71
2022/09/26 05:08:56;;;;;;;4.97;3.88;;;18.90;58.30;;;;;;5074805;28;20199;-71
2022/09/26 05:11:38;;;;;;;5.93;4.35;;;18.80;58.20;;;;;;5074881;28;20248;-71
2022/09/26 05:14:07;;;;;;;4.93;3.45;;;18.80;58.10;;;;;;5074553;28;20206;-71
2022/09/26 05:16:38;;;;;;;5.47;3.97;;;18.80;58.20;;;;;;5075875;28;20238;-71
2022/09/26 05:19:07;;;;;;;5.32;3.80;;;18.80;58.10;;;;;;5075900;28;20201;-71
2022/09/26 05:21:36;;;;;;;5.57;3.80;;;18.80;58.10;;;;;;5074906;28;20198;-71
2022/09/26 05:26:50;;;;;;;3.85;3.47;;;18.70;58.10;;;;;;5074510;28;20215;-71
2022/09/26 05:29:20;;;;;;;3.95;3.55;;;18.70;58.10;;;;;;5074640;28;20256;-71
2022/09/26 05:31:55;;;;;;;4.65;3.67;;;18.70;57.90;;;;;;5075644;28;20194;-71
2022/09/26 05:34:25;;;;;;;4.68;3.45;;;18.60;57.90;;;;;;5075204;28;20240;-71
2022/09/26 05:36:52;;;;;;;4.32;3.92;;;18.60;57.70;;;;;;5074454;28;20215;-71
2022/09/26 05:42:05;;;;;;;5.10;3.83;;;18.70;57.80;;;;;;5075043;28;20203;-71
2022/09/26 05:44:32;;;;;;;4.63;3.55;;;18.70;57.80;;;;;;5075103;28;20191;-71
2022/09/26 05:47:01;;;;;;;4.40;3.65;;;18.70;57.80;;;;;;5074663;28;20210;-71
2022/09/26 05:49:28;;;;;;;4.32;3.75;;;18.70;57.80;;;;;;5074132;28;20206;-71
2022/09/26 05:51:56;;;;;;;4.82;3.40;;;18.70;57.80;;;;;;5074173;28;20210;-71
2022/09/26 05:54:23;;;;;;;4.93;3.55;;;18.80;57.60;;;;;;5074217;28;20218;-71
2022/09/26 05:56:52;;;;;;;4.63;3.90;;;18.80;57.30;;;;;;5074086;28;20215;-73
2022/09/26 05:59:39;;;;;;;4.28;3.80;;;18.80;57.10;;;;;;5074982;28;20661;-72
2022/09/26 06:02:26;;;;;;;7.20;3.55;;;18.80;57.10;;;;;;5075689;28;20588;-71
2022/09/26 06:05:17;;;;;;;4.75;3.70;;;18.90;57.10;;;;;;5074139;28;20217;-71
2022/09/26 06:08:02;;;;;;;5.35;3.58;;;18.90;57.10;;;;;;5075521;28;20186;-71
2022/09/26 06:10:43;;;;;;;5.18;3.90;;;18.90;57.20;;;;;;5074028;28;20214;-71
2022/09/26 06:13:14;;;;;;;4.97;3.90;;;18.90;57.20;;;;;;5073524;28;20218;-71
2022/09/26 06:15:47;;;;;;;5.75;3.83;;;18.90;57.10;;;;;;5074280;28;20559;-71
2022/09/26 06:18:15;;;;;;;3.72;3.35;;;18.90;57.20;;;;;;5073704;28;20730;-71
2022/09/26 06:20:44;;;;;;;4.38;3.50;;;18.90;57.30;;;;;;5074229;28;20240;-71
2022/09/26 06:23:12;;;;;;;3.63;3.33;;;18.90;57.30;;;;;;5073645;28;20241;-71
2022/09/26 06:25:40;;;;;;;4.57;3.72;;;18.90;57.40;;;;;;5074468;28;20234;-71
2022/09/26 06:28:07;;;;;;;4.32;3.92;;;18.90;57.30;;;;;;5073870;28;20199;-71
2022/09/26 06:30:36;;;;;;;4.03;3.58;;;19.00;57.50;;;;;;5074382;28;20199;-71
2022/09/26 06:33:11;;;;;;;5.93;3.90;;;19.00;57.20;;;;;;5076236;28;20202;-71
2022/09/26 06:36:01;;;;;;;5.93;3.80;;;19.00;57.20;;;;;;5073623;28;20245;-71
2022/09/26 06:38:36;;;;;;;6.10;3.67;;;19.10;57.20;;;;;;5074161;28;20190;-71
2022/09/26 06:41:06;;;;;;;5.10;3.35;;;19.10;57.20;;;;;;5073152;28;20700;-71
2022/09/26 06:43:33;;;;;;;3.97;3.58;;;19.20;57.10;;;;;;5073180;28;20195;-71
2022/09/26 06:46:09;;;;;;;4.00;3.55;;;19.20;57.10;;;;;;5074731;28;20236;-71
2022/09/26 06:48:57;;;;;;;3.80;3.35;;;19.30;57.00;;;;;;5073232;28;20221;-71
2022/09/26 06:51:47;;;;;;;3.78;3.30;;;19.30;56.80;;;;;;5074173;28;20190;-71
2022/09/26 06:54:15;;;;;;;3.47;3.17;;;19.30;56.60;;;;;;5073794;28;20223;-71
2022/09/26 06:56:42;;;;;;;3.58;3.15;;;19.30;56.90;;;;;;5072821;28;20237;-71
2022/09/26 06:59:10;;;;;;;3.88;3.30;;;19.30;56.80;;;;;;5073000;28;20643;-71
2022/09/26 07:01:45;;;;;;;6.45;3.38;;;19.30;56.90;;;;;;5073485;28;20186;-71
2022/09/26 07:04:30;;;;;;;3.70;3.33;;;19.30;56.90;;;;;;5074625;28;20189;-71
2022/09/26 07:07:16;;;;;;;3.28;2.92;;;19.30;56.80;;;;;;5072935;28;20249;-71
2022/09/26 07:09:43;;;;;;;4.63;3.22;;;19.30;56.60;;;;;;5073520;28;20202;-71
2022/09/26 07:12:19;;;;;;;4.38;3.22;;;19.40;56.60;;;;;;5072761;28;20551;-71
2022/09/26 07:14:46;;;;;;;4.10;3.70;;;19.40;56.80;;;;;;5072581;28;20202;-71
2022/09/26 07:17:21;;;;;;;3.90;3.45;;;19.40;56.80;;;;;;5057837;28;20221;-71
2022/09/26 07:20:08;;;;;;;4.05;3.00;;;19.50;56.90;;;;;;5074526;28;20264;-71
2022/09/26 07:23:15;;;;;;;3.60;3.30;;;19.50;56.80;;;;;;5051940;28;20739;-71
2022/09/26 07:25:44;;;;;;;3.40;2.92;;;19.60;56.60;;;;;;5051707;28;20261;-71
2022/09/26 07:28:11;;;;;;;4.47;2.88;;;19.70;56.20;;;;;;5062269;28;20248;-71
2022/09/26 07:30:47;;;;;;;3.33;3.03;;;19.90;56.10;;;;;;5072683;28;20194;-71
2022/09/26 07:33:38;;;;;;;3.40;2.72;;;20.00;55.80;;;;;;5071011;28;20214;-71
2022/09/26 07:36:09;;;;;;;3.08;2.65;;;20.20;55.50;;;;;;5073598;28;20626;-72
2022/09/26 07:38:38;;;;;;;3.33;2.85;;;20.30;55.20;;;;;;5076689;28;20236;-71
2022/09/26 07:41:09;;;;;;;3.00;2.70;;;20.40;54.90;;;;;;5076936;28;20194;-71
2022/09/26 07:43:39;;;;;;;2.97;2.72;;;20.50;54.90;;;;;;5076699;28;20186;-71
2022/09/26 07:52:08;;;;;;;4.03;2.95;;;20.50;54.70;;;;;;5077706;28;20213;-71
2022/09/26 07:54:47;;;;;;;3.58;2.63;;;20.50;54.80;;;;;;5079439;28;20190;-71
2022/09/26 07:57:34;;;;;;;3.15;2.75;;;20.40;54.80;;;;;;5079301;28;20284;-71
2022/09/26 08:00:25;;;;;;;2.97;2.67;;;20.50;54.80;;;;;;5077429;28;20549;-71
2022/09/26 08:03:03;;;;;;;2.97;2.67;;;20.50;54.60;;;;;;5076932;28;20226;-71
2022/09/26 08:05:36;;;;;;;2.85;2.60;;;20.50;54.70;;;;;;5076036;28;20272;-71
2022/09/26 08:08:04;;;;;;;3.00;2.70;;;20.50;54.60;;;;;;5076412;28;20197;-71
2022/09/26 08:10:50;;;;;;;3.00;2.70;;;20.50;54.50;;;;;;5077075;28;20268;-71
2022/09/26 08:13:38;;;;;;;3.00;2.70;;;20.60;54.60;;;;;;5065837;28;20214;-72
2022/09/26 08:16:08;;;;;;;2.38;2.17;;;20.50;54.50;;;;;;5077130;28;20214;-71
2022/09/26 08:18:40;;;;;;;2.83;2.47;;;20.50;54.50;;;;;;5075755;28;20221;-71
2022/09/26 08:21:08;;;;;;;3.13;2.50;;;20.50;54.30;;;;;;5075841;28;20680;-71
2022/09/26 08:23:35;;;;;;;2.70;2.50;;;20.50;54.40;;;;;;5075615;28;20267;-71
2022/09/26 08:26:22;;;;;;;2.75;2.55;;;20.50;54.30;;;;;;5076961;28;20221;-71
2022/09/26 08:28:53;;;;;;;3.42;2.75;;;20.50;54.30;;;;;;5059487;28;20201;-71
2022/09/26 08:31:21;;;;;;;2.58;2.38;;;20.60;54.30;;;;;;5075815;28;20198;-71
2022/09/26 08:33:48;;;;;;;2.80;2.22;;;20.60;54.30;;;;;;5075961;28;20209;-71
2022/09/26 08:36:15;;;;;;;2.70;2.50;;;20.60;54.20;;;;;;5075381;28;20221;-71
2022/09/26 08:39:05;;;;;;;3.13;2.60;;;20.60;54.20;;;;;;5075584;28;20199;-71
2022/09/26 08:42:00;;;;;;;2.53;2.33;;;20.70;54.20;;;;;;5076742;28;20181;-71
2022/09/26 08:44:45;;;;;;;2.85;2.55;;;20.60;54.00;;;;;;5075450;28;20195;-71
2022/09/26 08:47:37;;;;;;;3.03;2.53;;;20.70;54.10;;;;;;5075825;28;20210;-71
2022/09/26 08:50:39;;;;;;;3.65;2.50;;;20.80;53.80;;;;;;5071383;28;20269;-71
2022/09/26 08:53:08;;;;;;;2.65;2.45;;;20.80;53.70;;;;;;5076285;28;20199;-71
2022/09/26 08:55:42;;;;;;;2.40;2.20;;;20.90;53.70;;;;;;5076147;28;20240;-71
2022/09/26 08:58:15;;;;;;;2.65;2.35;;;21.10;53.60;;;;;;5075353;28;20194;-71
2022/09/26 09:00:42;;;;;;;2.13;1.92;;;21.30;53.20;;;;;;5075124;28;20198;-71
2022/09/26 09:03:19;;;;;;;2.60;2.30;;;21.60;52.90;;;;;;5075166;28;20688;-71
2022/09/26 09:05:48;;;;;;;2.88;2.58;;;21.80;52.40;;;;;;5074822;28;20245;-71
2022/09/26 09:08:20;;;;;;;3.13;2.40;;;22.10;51.90;;;;;;5074977;28;20700;-71
2022/09/26 09:11:09;;;;;;;3.35;2.92;;;22.20;51.50;;;;;;5075065;28;20646;-71
2022/09/26 09:14:01;;;;;;;3.83;2.72;;;22.40;51.10;;;;;;5074715;28;20202;-71
2022/09/26 09:17:07;;;;;;;3.45;2.53;;;22.50;50.80;;;;;;5064066;28;20219;-71
2022/09/26 09:19:58;;;;;;;2.60;2.40;;;22.60;50.50;;;;;;5074617;28;20201;-71
2022/09/26 09:23:01;;;;;;;3.05;2.35;;;22.70;50.40;;;;;;5076164;28;20193;-71
2022/09/26 09:25:38;;;;;;;2.88;2.28;;;22.70;50.10;;;;;;5074497;28;20229;-71
2022/09/26 09:28:14;;;;;;;2.50;2.30;;;22.90;50.10;;;;;;5074644;28;20191;-71
2022/09/26 09:30:43;;;;;;;2.33;2.13;;;22.70;50.00;;;;;;5074779;28;20209;-71
2022/09/26 09:33:36;;;;;;;2.45;2.17;;;22.70;50.10;;;;;;5075913;28;20278;-71
2022/09/26 09:36:21;;;;;;;2.92;2.33;;;22.70;50.10;;;;;;5060265;28;20219;-71
2022/09/26 09:39:07;;;;;;;2.90;2.53;;;22.70;50.00;;;;;;5075625;28;20182;-71
2022/09/26 09:41:55;;;;;;;3.25;2.63;;;22.80;49.70;;;;;;5076212;28;20271;-71
2022/09/26 09:44:28;;;;;;;2.60;2.40;;;23.00;49.70;;;;;;5075130;28;20194;-71
2022/09/26 09:46:57;;;;;;;2.42;2.22;;;22.90;49.50;;;;;;5078667;28;20214;-71
2022/09/26 09:49:24;;;;;;;2.55;2.35;;;22.80;49.60;;;;;;5074307;28;20234;-71
2022/09/26 09:51:59;;;;;;;2.50;2.30;;;22.70;49.80;;;;;;5074235;28;20544;-71
2022/09/26 09:54:40;;;;;;;2.45;2.25;;;22.60;49.90;;;;;;5075269;28;20251;-71
2022/09/26 09:57:27;;;;;;;2.60;2.35;;;22.60;50.10;;;;;;5075206;28;20238;-71
2022/09/26 10:00:07;;;;;;;2.30;2.10;;;22.60;50.00;;;;;;5072729;28;20206;-71
2022/09/26 10:02:46;;;;;;;2.60;2.40;;;22.70;50.00;;;;;;5075039;28;20186;-71
2022/09/26 10:05:23;;;;;;;2.40;2.20;;;22.70;49.80;;;;;;5074722;28;20225;-71
2022/09/26 10:07:57;;;;;;;2.50;2.28;;;22.80;49.60;;;;;;5073844;28;20672;-71
2022/09/26 10:11:06;;;;;;;2.40;2.20;;;22.90;49.40;;;;;;5062827;28;20336;-71
2022/09/26 10:14:06;;;;;;;2.40;2.10;;;23.00;49.40;;;;;;5055220;28;20207;-72
2022/09/26 10:17:17;;;;;;;2.28;2.03;;;23.10;49.10;;;;;;5052977;28;20691;-72
2022/09/26 10:19:57;;;;;;;2.40;2.20;;;23.10;49.00;;;;;;5037947;28;20692;-71
2022/09/26 10:22:28;;;;;;;2.15;1.95;;;23.00;48.90;;;;;;5065438;28;20213;-71
2022/09/26 10:25:00;;;;;;;2.30;2.10;;;23.00;49.20;;;;;;5073418;28;20248;-71
2022/09/26 10:27:33;;;;;;;2.28;2.08;;;22.90;49.40;;;;;;5073321;28;20218;-71
2022/09/26 10:30:02;;;;;;;2.30;2.10;;;22.80;49.70;;;;;;5073970;28;20195;-71
2022/09/26 10:32:29;;;;;;;2.35;2.15;;;22.60;49.80;;;;;;5073471;28;20281;-71
2022/09/26 10:35:19;;;;;;;2.20;2.00;;;22.60;50.00;;;;;;5074259;28;20234;-71
2022/09/26 10:37:50;;;;;;;2.20;2.00;;;22.60;50.10;;;;;;5073217;28;20192;-71
2022/09/26 10:43:22;;;;;;;2.45;2.25;;;22.60;50.10;;;;;;5073232;28;20663;-71
2022/09/26 10:45:53;;;;;;;2.30;2.10;;;22.70;50.00;;;;;;5074023;28;20214;-71
2022/09/26 10:48:53;;;;;;;2.47;2.22;;;22.70;49.80;;;;;;5074062;28;20201;-71
2022/09/26 10:51:43;;;;;;;2.38;2.03;;;22.80;49.70;;;;;;5074217;28;20272;-71
2022/09/26 10:54:12;;;;;;;1.90;1.80;;;22.80;49.50;;;;;;5073301;28;20207;-71
2022/09/26 10:56:42;;;;;;;2.67;2.10;;;22.90;49.50;;;;;;5056639;28;20202;-71
2022/09/26 10:59:10;;;;;;;2.40;2.20;;;22.90;49.60;;;;;;5072938;28;20233;-71
2022/09/26 11:01:41;;;;;;;2.40;2.20;;;22.90;49.60;;;;;;5072911;28;20699;-71
2022/09/26 11:04:14;;;;;;;2.33;2.08;;;22.80;49.60;;;;;;5072811;28;20653;-71
2022/09/26 11:07:23;;;;;;;2.30;2.10;;;22.80;49.70;;;;;;5073727;28;20245;-71
2022/09/26 11:10:00;;;;;;;2.58;2.30;;;22.80;49.80;;;;;;5074074;28;20195;-72
2022/09/26 11:12:55;;;;;;;2.80;2.20;;;22.70;49.80;;;;;;5072487;28;20282;-71
2022/09/26 11:15:23;;;;;;;3.15;2.22;;;22.60;49.90;;;;;;5072957;28;20253;-71
2022/09/26 11:17:51;;;;;;;2.40;2.20;;;22.70;49.90;;;;;;5072937;28;20567;-71
2022/09/26 11:20:26;;;;;;;2.47;2.28;;;22.60;49.80;;;;;;5073245;28;20195;-71
2022/09/26 11:23:01;;;;;;;2.25;2.05;;;22.70;49.90;;;;;;5073147;28;20273;-71
2022/09/26 11:25:32;;;;;;;2.47;1.90;;;22.70;49.90;;;;;;5073165;28;20187;-71
2022/09/26 11:28:04;;;;;;;2.20;2.00;;;22.60;49.80;;;;;;5073499;28;20681;-71
2022/09/26 11:30:47;;;;;;;2.25;2.05;;;22.70;49.90;;;;;;5073351;28;20273;-71
2022/09/26 11:33:18;;;;;;;2.20;2.00;;;22.70;50.00;;;;;;5056849;28;20198;-71
2022/09/26 11:36:13;;;;;;;2.15;1.95;;;22.70;50.00;;;;;;5073691;28;20221;-71
2022/09/26 11:38:46;;;;;;;2.00;1.90;;;22.60;49.90;;;;;;5072401;28;20232;-71
2022/09/26 11:41:36;;;;;;;2.20;2.00;;;22.60;50.00;;;;;;5073001;28;20197;-71
2022/09/26 11:44:19;;;;;;;2.42;2.22;;;22.60;49.90;;;;;;5072787;28;20618;-71
2022/09/26 11:47:21;;;;;;;2.20;2.00;;;22.60;50.00;;;;;;5073558;28;20225;-71
2022/09/26 11:50:01;;;;;;;2.10;2.00;;;22.60;50.00;;;;;;5072346;28;20205;-71
2022/09/26 11:52:53;;;;;;;2.00;1.90;;;22.60;50.10;;;;;;5074016;28;20237;-71
2022/09/26 11:55:29;;;;;;;2.00;1.90;;;22.60;50.00;;;;;;5072445;28;20183;-71
2022/09/26 11:58:04;;;;;;;2.30;1.85;;;22.60;50.10;;;;;;5072205;28;20213;-71
2022/09/26 12:00:38;;;;;;;2.90;2.08;;;22.60;50.10;;;;;;5072540;28;20208;-71
2022/09/26 12:03:36;;;;;;;1.95;1.85;;;22.60;50.10;;;;;;5073337;28;20176;-71
2022/09/26 12:06:07;;;;;;;1.90;1.80;;;22.60;50.10;;;;;;5042210;28;20738;-71
2022/09/26 12:08:46;;;;;;;2.30;2.10;;;22.60;50.20;;;;;;5071956;28;20389;-71
2022/09/26 12:11:18;;;;;;;2.22;1.92;;;22.60;50.20;;;;;;5072141;28;20191;-71
2022/09/26 12:13:51;;;;;;;2.05;1.75;;;22.60;50.20;;;;;;5073544;28;20195;-71
2022/09/26 12:16:20;;;;;;;1.90;1.80;;;22.60;50.20;;;;;;5073489;28;20695;-71
2022/09/26 12:18:56;;;;;;;1.90;1.80;;;22.60;50.10;;;;;;5073451;28;20191;-71
2022/09/26 12:21:29;;;;;;;2.22;2.03;;;22.60;50.20;;;;;;5072052;28;20179;-71
2022/09/26 12:23:57;;;;;;;2.05;1.88;;;22.60;50.20;;;;;;5075045;28;20190;-71
2022/09/26 12:26:29;;;;;;;1.90;1.80;;;22.60;50.20;;;;;;5075868;28;20268;-71
2022/09/26 12:29:30;;;;;;;2.40;2.20;;;22.60;50.20;;;;;;5077042;28;20758;-71
2022/09/26 12:32:13;;;;;;;1.83;1.70;;;22.60;50.20;;;;;;5077820;28;20190;-71
2022/09/26 12:35:03;;;;;;;1.88;1.70;;;22.60;50.20;;;;;;5075943;28;20707;-71
2022/09/26 12:37:40;;;;;;;2.00;1.90;;;22.60;50.20;;;;;;5075680;28;20210;-71
2022/09/26 12:40:23;;;;;;;2.00;1.80;;;22.60;50.30;;;;;;5075414;28;20569;-71
2022/09/26 12:43:15;;;;;;;2.03;1.80;;;22.60;50.40;;;;;;5075524;28;20218;-71
2022/09/26 12:45:55;;;;;;;1.90;1.80;;;22.50;50.40;;;;;;5074937;28;20215;-71
2022/09/26 12:48:35;;;;;;;2.00;1.83;;;22.50;50.40;;;;;;5075757;28;20276;-71
2022/09/26 12:51:14;;;;;;;1.70;1.60;;;22.50;50.50;;;;;;5075436;28;20191;-71
2022/09/26 12:53:54;;;;;;;1.90;1.80;;;22.40;50.50;;;;;;5075329;28;20649;-71
2022/09/26 12:56:25;;;;;;;2.00;1.90;;;22.50;50.60;;;;;;5075306;28;20272;-71
2022/09/26 12:59:06;;;;;;;1.98;1.88;;;22.50;50.60;;;;;;5076545;28;20210;-71
2022/09/26 13:01:43;;;;;;;1.98;1.85;;;22.40;50.60;;;;;;5076478;28;20534;-71
2022/09/26 13:04:31;;;;;;;2.03;1.90;;;22.40;50.70;;;;;;5076230;28;20195;-71
2022/09/26 13:07:09;;;;;;;1.98;1.80;;;22.40;51.30;;;;;;5075338;28;20255;-71
2022/09/26 13:10:07;;;;;;;1.98;1.83;;;22.40;50.70;;;;;;5076550;28;20171;-71
2022/09/26 13:12:46;;;;;;;1.85;1.75;;;22.40;50.70;;;;;;5059200;28;20199;-71
2022/09/26 13:15:23;;;;;;;1.90;1.80;;;22.40;50.60;;;;;;5074848;28;20201;-71
2022/09/26 13:17:53;;;;;;;2.20;2.00;;;22.40;50.60;;;;;;5075597;28;20195;-71
2022/09/26 13:20:25;;;;;;;1.98;1.88;;;22.40;50.60;;;;;;5074597;28;20197;-71
2022/09/26 13:22:53;;;;;;;1.58;1.48;;;22.40;50.50;;;;;;5076177;28;20225;-71
2022/09/26 13:25:22;;;;;;;1.80;1.70;;;22.40;50.50;;;;;;5075863;28;20218;-71
2022/09/26 13:27:53;;;;;;;1.80;1.70;;;22.40;50.60;;;;;;5074594;28;20214;-71
2022/09/26 13:30:25;;;;;;;1.90;1.80;;;22.40;50.60;;;;;;5074652;28;20551;-71
2022/09/26 13:32:57;;;;;;;1.60;1.50;;;22.30;50.50;;;;;;5076415;28;20233;-71
2022/09/26 13:35:26;;;;;;;1.80;1.70;;;22.30;50.50;;;;;;5075469;28;20187;-71
2022/09/26 13:38:18;;;;;;;2.10;1.90;;;22.30;50.60;;;;;;5075241;28;20191;-71
2022/09/26 13:40:50;;;;;;;1.83;1.73;;;22.30;50.50;;;;;;5072600;28;20588;-72